Aviation Digital Data Service (ADDS)

Output produced by METARs form (1039 UTC 24 January 2019)
found at http://aviationweather.gov/metar/data/
 
METAR text: KJOT 241015Z AUTO 00000KT 7SM CLR M12/M13 A2986 RMK AO2 T11161130
Conditions at: KJOT (JOLIET , IL, US) observed 1015 UTC 24 January 2019
Temperature: -11.6°C (11°F)
Dewpoint: -13.0°C ( 9°F) [RH = 89%]
Pressure (altimeter): 29.86 inches Hg (1011.3 mb)
Winds: calm
Visibility: 7 miles (11 km)
Ceiling: at least 12,000 feet AGL
Clouds: sky clear below 12,000 feet AGL
Weather: automated observation with no human augmentation;
there may or may not be significant weather present at this time